^^
TXWeather Station Historical Data
Daily Summary for April 15, 2022 Units:  English    Metric   Both
Daily Weekly Monthly Yearly Custom
  High: Low: Average:
Temperature: 80.0 °F 63.0 °F 71.3 °F
Dew Point: 74.0 °F 55.0 °F 66.4 °F
Humidity: 91% 70% 85%
Wind Speed: 10mph 1mph 4.5mph
Wind Gust: 12mph - -
Wind- - ESE
Pressure: 30.0 in 29.9 in -
Precipitation: 0.020 in    
Historical Graphs
 
 
Tabular Data for April 15, 2022
Time Temperature Dew Point Pressure Wind Wind Speed Wind Gust Humidity Rainfall Rate (Hourly) solar
00:04 66.0 °F 56.0 °F 30.0 in ESE 1 mph 2 mph 70% 0.000 in 0.00 W/m2
00:09 66.0 °F 56.0 °F 30.0 in ESE 2 mph 2 mph 70% 0.000 in 0.00 W/m2
00:14 66.0 °F 56.0 °F 30.0 in ESE 1 mph 2 mph 71% 0.000 in 0.00 W/m2
00:19 66.0 °F 56.0 °F 30.0 in ESE 1 mph 1 mph 71% 0.000 in 0.00 W/m2
00:29 65.0 °F 55.0 °F 30.0 in ESE 1 mph 2 mph 71% 0.000 in 0.00 W/m2
00:34 65.0 °F 56.0 °F 30.0 in ESE 2 mph 2 mph 72% 0.000 in 0.00 W/m2
00:39 65.0 °F 56.0 °F 30.0 in ESE 1 mph 1 mph 72% 0.000 in 0.00 W/m2
00:44 65.0 °F 56.0 °F 30.0 in ESE 2 mph 2 mph 73% 0.000 in 0.00 W/m2
00:49 65.0 °F 56.0 °F 30.0 in ESE 2 mph 2 mph 74% 0.000 in 0.00 W/m2
00:54 64.0 °F 56.0 °F 30.0 in ESE 2 mph 2 mph 74% 0.000 in 0.00 W/m2
00:59 64.0 °F 56.0 °F 30.0 in ESE 1 mph 2 mph 74% 0.000 in 0.00 W/m2
01:04 64.0 °F 56.0 °F 30.0 in ESE 1 mph 1 mph 75% 0.000 in 0.00 W/m2
01:09 64.0 °F 56.0 °F 30.0 in ESE 2 mph 2 mph 75% 0.000 in 0.00 W/m2
01:14 64.0 °F 56.0 °F 30.0 in ESE 1 mph 2 mph 75% 0.000 in 0.00 W/m2
01:19 63.0 °F 55.0 °F 30.0 in ESE 3 mph 3 mph 75% 0.000 in 0.00 W/m2
01:24 63.0 °F 56.0 °F 30.0 in ENE 2 mph 3 mph 76% 0.000 in 0.00 W/m2
01:29 63.0 °F 55.0 °F 30.0 in ENE 2 mph 2 mph 76% 0.000 in 0.00 W/m2
01:34 63.0 °F 56.0 °F 30.0 in ENE 1 mph 2 mph 77% 0.000 in 0.00 W/m2
01:39 63.0 °F 56.0 °F 30.0 in East 2 mph 3 mph 77% 0.000 in 0.00 W/m2
01:44 63.0 °F 55.0 °F 30.0 in East 2 mph 3 mph 77% 0.000 in 0.00 W/m2
01:49 63.0 °F 56.0 °F 30.0 in East 1 mph 1 mph 78% 0.000 in 0.00 W/m2
01:54 63.0 °F 56.0 °F 30.0 in East 2 mph 2 mph 78% 0.000 in 0.00 W/m2
01:59 63.0 °F 56.0 °F 30.0 in East 2 mph 2 mph 79% 0.000 in 0.00 W/m2
02:04 63.0 °F 57.0 °F 30.0 in East 3 mph 3 mph 80% 0.000 in 0.00 W/m2
02:09 63.0 °F 57.0 °F 30.0 in East 3 mph 5 mph 81% 0.000 in 0.00 W/m2
02:14 63.0 °F 57.0 °F 30.0 in East 2 mph 5 mph 81% 0.000 in 0.00 W/m2
02:19 63.0 °F 58.0 °F 30.0 in East 4 mph 4 mph 82% 0.000 in 0.00 W/m2
02:24 64.0 °F 58.0 °F 30.0 in ENE 2 mph 4 mph 83% 0.000 in 0.00 W/m2
02:29 64.0 °F 59.0 °F 30.0 in East 4 mph 6 mph 83% 0.000 in 0.00 W/m2
02:34 64.0 °F 59.0 °F 30.0 in East 3 mph 6 mph 84% 0.000 in 0.00 W/m2
02:39 64.0 °F 59.0 °F 30.0 in ESE 4 mph 6 mph 84% 0.000 in 0.00 W/m2
02:44 65.0 °F 60.0 °F 30.0 in ESE 4 mph 7 mph 85% 0.000 in 0.00 W/m2
02:49 65.0 °F 60.0 °F 30.0 in ESE 5 mph 6 mph 85% 0.000 in 0.00 W/m2
02:54 65.0 °F 60.0 °F 30.0 in SE 4 mph 5 mph 85% 0.000 in 0.00 W/m2
02:59 65.0 °F 60.0 °F 30.0 in SE 5 mph 5 mph 85% 0.000 in 0.00 W/m2
03:04 65.0 °F 60.0 °F 30.0 in SE 2 mph 4 mph 85% 0.000 in 0.00 W/m2
03:09 66.0 °F 61.0 °F 30.0 in East 6 mph 7 mph 86% 0.000 in 0.00 W/m2
03:14 66.0 °F 61.0 °F 30.0 in East 3 mph 4 mph 86% 0.000 in 0.00 W/m2
03:19 66.0 °F 61.0 °F 30.0 in ESE 4 mph 6 mph 86% 0.000 in 0.00 W/m2
03:24 66.0 °F 61.0 °F 30.0 in ESE 4 mph 5 mph 86% 0.000 in 0.00 W/m2
03:29 66.0 °F 62.0 °F 30.0 in East 5 mph 5 mph 86% 0.000 in 0.00 W/m2
03:34 66.0 °F 62.0 °F 30.0 in ESE 7 mph 7 mph 86% 0.000 in 0.00 W/m2
03:39 66.0 °F 62.0 °F 30.0 in ESE 5 mph 7 mph 86% 0.000 in 0.00 W/m2
03:44 66.0 °F 62.0 °F 30.0 in East 4 mph 4 mph 86% 0.000 in 0.00 W/m2
03:49 66.0 °F 62.0 °F 30.0 in East 3 mph 3 mph 86% 0.000 in 0.00 W/m2
03:54 66.0 °F 62.0 °F 30.0 in East 3 mph 4 mph 86% 0.000 in 0.00 W/m2
03:59 66.0 °F 62.0 °F 30.0 in ESE 4 mph 4 mph 86% 0.000 in 0.00 W/m2
04:04 66.0 °F 62.0 °F 30.0 in ESE 3 mph 4 mph 86% 0.000 in 0.00 W/m2
04:09 66.0 °F 62.0 °F 30.0 in East 2 mph 4 mph 87% 0.000 in 0.00 W/m2
04:14 66.0 °F 62.0 °F 30.0 in ENE 3 mph 4 mph 87% 0.000 in 0.00 W/m2
04:19 66.0 °F 62.0 °F 30.0 in ESE 4 mph 6 mph 87% 0.000 in 0.00 W/m2
04:24 66.0 °F 62.0 °F 30.0 in East 4 mph 6 mph 87% 0.000 in 0.00 W/m2
04:29 66.0 °F 62.0 °F 30.0 in ESE 3 mph 5 mph 87% 0.000 in 0.00 W/m2
04:34 67.0 °F 63.0 °F 30.0 in East 3 mph 5 mph 87% 0.000 in 0.00 W/m2
04:39 67.0 °F 63.0 °F 30.0 in SE 3 mph 3 mph 87% 0.000 in 0.00 W/m2
04:44 67.0 °F 63.0 °F 30.0 in SE 2 mph 3 mph 87% 0.000 in 0.00 W/m2
04:49 67.0 °F 63.0 °F 30.0 in ESE 2 mph 3 mph 87% 0.000 in 0.00 W/m2
04:54 67.0 °F 63.0 °F 30.0 in East 2 mph 3 mph 87% 0.000 in 0.00 W/m2
04:59 67.0 °F 63.0 °F 30.0 in East 2 mph 2 mph 87% 0.000 in 0.00 W/m2
05:04 67.0 °F 63.0 °F 30.0 in East 3 mph 3 mph 87% 0.000 in 0.00 W/m2
05:09 67.0 °F 63.0 °F 30.0 in East 2 mph 2 mph 87% 0.000 in 0.00 W/m2
05:14 67.0 °F 63.0 °F 30.0 in ESE 4 mph 5 mph 87% 0.000 in 0.00 W/m2
05:19 67.0 °F 63.0 °F 30.0 in SE 3 mph 3 mph 87% 0.000 in 0.00 W/m2
05:24 67.0 °F 63.0 °F 30.0 in SE 3 mph 4 mph 87% 0.000 in 0.00 W/m2
05:29 67.0 °F 63.0 °F 30.0 in SE 2 mph 2 mph 87% 0.000 in 0.00 W/m2
05:34 67.0 °F 63.0 °F 30.0 in ESE 3 mph 3 mph 87% 0.000 in 0.00 W/m2
05:39 67.0 °F 63.0 °F 30.0 in SE 3 mph 4 mph 87% 0.000 in 0.00 W/m2
05:44 67.0 °F 64.0 °F 30.0 in ESE 3 mph 3 mph 88% 0.000 in 0.00 W/m2
05:49 68.0 °F 64.0 °F 30.0 in SE 7 mph 7 mph 88% 0.000 in 0.00 W/m2
05:54 68.0 °F 64.0 °F 30.0 in SE 7 mph 8 mph 88% 0.000 in 0.00 W/m2
05:59 68.0 °F 64.0 °F 30.0 in SE 7 mph 7 mph 88% 0.000 in 0.00 W/m2
06:04 68.0 °F 64.0 °F 30.0 in SE 5 mph 7 mph 88% 0.000 in 0.00 W/m2
06:09 68.0 °F 64.0 °F 30.0 in SE 3 mph 3 mph 88% 0.000 in 0.00 W/m2
06:14 68.0 °F 64.0 °F 30.0 in ESE 3 mph 3 mph 88% 0.000 in 0.00 W/m2
06:19 68.0 °F 64.0 °F 30.0 in SE 4 mph 4 mph 88% 0.000 in 0.00 W/m2
06:24 68.0 °F 64.0 °F 30.0 in SE 3 mph 3 mph 88% 0.000 in 0.00 W/m2
06:29 68.0 °F 64.0 °F 30.0 in SE 1 mph 2 mph 88% 0.000 in 0.00 W/m2
06:34 68.0 °F 64.0 °F 30.0 in ESE 3 mph 5 mph 88% 0.000 in 0.00 W/m2
06:39 68.0 °F 64.0 °F 30.0 in East 6 mph 6 mph 88% 0.000 in 0.00 W/m2
06:44 68.0 °F 64.0 °F 30.0 in ESE 4 mph 7 mph 88% 0.000 in 0.00 W/m2
06:49 68.0 °F 64.0 °F 30.0 in ESE 4 mph 6 mph 88% 0.000 in 0.00 W/m2
06:54 68.0 °F 64.0 °F 30.0 in ESE 8 mph 8 mph 88% 0.000 in 0.00 W/m2
06:59 68.0 °F 64.0 °F 30.0 in ESE 4 mph 8 mph 88% 0.000 in 0.00 W/m2
07:04 68.0 °F 64.0 °F 30.0 in ESE 6 mph 6 mph 89% 0.000 in 0.00 W/m2
07:09 68.0 °F 64.0 °F 30.0 in East 4 mph 6 mph 89% 0.000 in 0.00 W/m2
07:14 68.0 °F 64.0 °F 30.0 in NNE 3 mph 3 mph 89% 0.000 in 7.00 W/m2
07:19 68.0 °F 64.0 °F 30.0 in ENE 3 mph 3 mph 89% 0.000 in 11.00 W/m2
07:24 68.0 °F 64.0 °F 30.0 in ESE 5 mph 5 mph 89% 0.000 in 14.00 W/m2
07:29 68.0 °F 64.0 °F 30.0 in East 3 mph 4 mph 89% 0.000 in 18.00 W/m2
07:34 68.0 °F 64.0 °F 30.0 in ESE 4 mph 6 mph 89% 0.000 in 14.00 W/m2
07:39 68.0 °F 64.0 °F 30.0 in ESE 7 mph 7 mph 89% 0.000 in 14.00 W/m2
07:44 68.0 °F 64.0 °F 30.0 in ESE 7 mph 7 mph 89% 0.000 in 21.00 W/m2
07:49 68.0 °F 64.0 °F 30.0 in ESE 6 mph 6 mph 89% 0.000 in 26.00 W/m2
07:54 68.0 °F 64.0 °F 30.0 in SSE 3 mph 7 mph 89% 0.000 in 26.00 W/m2
07:59 68.0 °F 64.0 °F 30.0 in ESE 4 mph 4 mph 89% 0.000 in 28.00 W/m2
08:04 68.0 °F 64.0 °F 30.0 in ESE 3 mph 4 mph 89% 0.000 in 32.00 W/m2
08:09 68.0 °F 64.0 °F 30.0 in SE 3 mph 4 mph 89% 0.000 in 28.00 W/m2
08:14 68.0 °F 64.0 °F 30.0 in SE 5 mph 7 mph 89% 0.000 in 26.00 W/m2
08:19 68.0 °F 64.0 °F 30.0 in SE 5 mph 7 mph 89% 0.000 in 26.00 W/m2
08:24 68.0 °F 64.0 °F 30.0 in SE 4 mph 5 mph 89% 0.000 in 25.00 W/m2
08:29 68.0 °F 64.0 °F 30.0 in ESE 6 mph 7 mph 89% 0.000 in 30.00 W/m2
08:34 68.0 °F 64.0 °F 30.0 in ESE 7 mph 7 mph 89% 0.000 in 33.00 W/m2
08:39 68.0 °F 64.0 °F 30.0 in SE 5 mph 8 mph 89% 0.000 in 33.00 W/m2
08:44 68.0 °F 64.0 °F 30.0 in ESE 3 mph 8 mph 89% 0.000 in 39.00 W/m2
08:49 68.0 °F 64.0 °F 30.0 in ESE 7 mph 7 mph 89% 0.000 in 32.00 W/m2
08:54 68.0 °F 64.0 °F 30.0 in ESE 6 mph 6 mph 89% 0.000 in 37.00 W/m2
08:59 68.0 °F 64.0 °F 30.0 in ESE 4 mph 6 mph 89% 0.000 in 35.00 W/m2
09:04 68.0 °F 64.0 °F 30.0 in SE 4 mph 5 mph 89% 0.000 in 35.00 W/m2
09:09 68.0 °F 65.0 °F 30.0 in SE 4 mph 5 mph 89% 0.000 in 47.00 W/m2
09:14 68.0 °F 65.0 °F 30.0 in SE 4 mph 6 mph 89% 0.000 in 62.00 W/m2
09:19 68.0 °F 65.0 °F 30.0 in SE 4 mph 4 mph 90% 0.000 in 67.00 W/m2
09:24 68.0 °F 65.0 °F 30.0 in SE 5 mph 5 mph 90% 0.000 in 77.00 W/m2
09:29 68.0 °F 65.0 °F 30.0 in SE 3 mph 4 mph 90% 0.000 in 77.00 W/m2
09:34 68.0 °F 65.0 °F 30.0 in SE 3 mph 5 mph 90% 0.010 in 60.00 W/m2
09:39 68.0 °F 65.0 °F 30.0 in East 4 mph 5 mph 90% 0.010 in 74.00 W/m2
09:44 68.0 °F 65.0 °F 30.0 in East 3 mph 3 mph 90% 0.010 in 74.00 W/m2
09:49 68.0 °F 65.0 °F 30.0 in East 2 mph 3 mph 90% 0.010 in 74.00 W/m2
09:54 68.0 °F 65.0 °F 30.0 in East 2 mph 2 mph 90% 0.010 in 72.00 W/m2
09:59 69.0 °F 66.0 °F 30.0 in NE 4 mph 4 mph 90% 0.010 in 54.00 W/m2
10:04 69.0 °F 66.0 °F 30.0 in NNE 3 mph 3 mph 90% 0.010 in 54.00 W/m2
10:09 69.0 °F 66.0 °F 30.0 in East 2 mph 2 mph 90% 0.010 in 62.00 W/m2
10:14 69.0 °F 66.0 °F 30.0 in ENE 4 mph 7 mph 90% 0.010 in 62.00 W/m2
10:19 69.0 °F 66.0 °F 30.0 in ENE 2 mph 7 mph 90% 0.010 in 69.00 W/m2
10:24 69.0 °F 66.0 °F 30.0 in NE 3 mph 3 mph 90% 0.010 in 74.00 W/m2
10:29 69.0 °F 66.0 °F 30.0 in ENE 2 mph 4 mph 90% 0.010 in 74.00 W/m2
10:34 69.0 °F 66.0 °F 30.0 in ENE 3 mph 4 mph 90% 0.010 in 72.00 W/m2
10:39 69.0 °F 66.0 °F 30.0 in NE 4 mph 4 mph 90% 0.010 in 79.00 W/m2
10:44 69.0 °F 66.0 °F 30.0 in ENE 5 mph 5 mph 90% 0.010 in 91.00 W/m2
10:49 69.0 °F 66.0 °F 30.0 in NE 3 mph 5 mph 91% 0.010 in 88.00 W/m2
10:54 69.0 °F 66.0 °F 30.0 in East 3 mph 4 mph 91% 0.010 in 90.00 W/m2
10:59 69.0 °F 66.0 °F 30.0 in NE 2 mph 3 mph 90% 0.010 in 90.00 W/m2
11:04 69.0 °F 66.0 °F 30.0 in NE 3 mph 4 mph 91% 0.010 in 93.00 W/m2
11:09 69.0 °F 66.0 °F 30.0 in NE 4 mph 4 mph 91% 0.010 in 91.00 W/m2
11:14 69.0 °F 66.0 °F 30.0 in NE 3 mph 3 mph 91% 0.010 in 113.00 W/m2
11:19 69.0 °F 66.0 °F 30.0 in ENE 3 mph 3 mph 91% 0.010 in 111.00 W/m2
11:24 69.0 °F 67.0 °F 30.0 in NNE 4 mph 4 mph 91% 0.010 in 102.00 W/m2
11:29 69.0 °F 67.0 °F 30.0 in ENE 4 mph 4 mph 91% 0.010 in 109.00 W/m2
11:34 69.0 °F 67.0 °F 30.0 in East 4 mph 4 mph 91% 0.010 in 109.00 W/m2
11:39 69.0 °F 67.0 °F 30.0 in NE 3 mph 4 mph 91% 0.010 in 120.00 W/m2
11:44 69.0 °F 67.0 °F 30.0 in NE 2 mph 4 mph 91% 0.000 in 151.00 W/m2
11:49 69.0 °F 67.0 °F 30.0 in ENE 4 mph 5 mph 91% 0.000 in 178.00 W/m2
11:54 70.0 °F 67.0 °F 30.0 in ENE 4 mph 4 mph 91% 0.000 in 197.00 W/m2
11:59 70.0 °F 67.0 °F 30.0 in ENE 3 mph 3 mph 91% 0.000 in 193.00 W/m2
12:04 70.0 °F 68.0 °F 30.0 in NE 3 mph 4 mph 91% 0.000 in 202.00 W/m2
12:09 70.0 °F 68.0 °F 30.0 in NE 3 mph 3 mph 91% 0.000 in 171.00 W/m2
12:14 71.0 °F 68.0 °F 30.0 in NNE 4 mph 5 mph 91% 0.000 in 149.00 W/m2
12:19 71.0 °F 68.0 °F 30.0 in NNE 4 mph 4 mph 91% 0.000 in 132.00 W/m2
12:24 70.0 °F 68.0 °F 30.0 in NNE 3 mph 3 mph 91% 0.000 in 128.00 W/m2
12:29 70.0 °F 68.0 °F 30.0 in NE 3 mph 3 mph 91% 0.000 in 127.00 W/m2
12:34 70.0 °F 68.0 °F 30.0 in ENE 2 mph 3 mph 91% 0.000 in 70.00 W/m2
12:39 70.0 °F 68.0 °F 30.0 in NE 4 mph 4 mph 91% 0.000 in 65.00 W/m2
12:44 70.0 °F 68.0 °F 30.0 in NE 2 mph 4 mph 91% 0.000 in 79.00 W/m2
12:49 70.0 °F 68.0 °F 30.0 in NE 3 mph 3 mph 91% 0.000 in 81.00 W/m2
12:54 70.0 °F 68.0 °F 30.0 in NNE 4 mph 4 mph 91% 0.000 in 72.00 W/m2
12:59 70.0 °F 68.0 °F 30.0 in NNE 4 mph 4 mph 91% 0.000 in 79.00 W/m2
13:04 70.0 °F 68.0 °F 30.0 in NE 4 mph 4 mph 91% 0.000 in 84.00 W/m2
13:09 70.0 °F 68.0 °F 30.0 in NNE 4 mph 4 mph 91% 0.000 in 84.00 W/m2
13:14 71.0 °F 68.0 °F 30.0 in NNE 3 mph 3 mph 91% 0.000 in 65.00 W/m2
13:19 71.0 °F 68.0 °F 30.0 in NNE 4 mph 4 mph 91% 0.000 in 132.00 W/m2
13:24 71.0 °F 68.0 °F 30.0 in NE 3 mph 4 mph 91% 0.000 in 142.00 W/m2
13:29 71.0 °F 68.0 °F 30.0 in NE 3 mph 3 mph 91% 0.000 in 162.00 W/m2
13:34 71.0 °F 68.0 °F 30.0 in NE 5 mph 5 mph 91% 0.000 in 185.00 W/m2
13:39 71.0 °F 69.0 °F 30.0 in ENE 4 mph 4 mph 91% 0.000 in 116.00 W/m2
13:44 71.0 °F 69.0 °F 30.0 in NE 3 mph 3 mph 91% 0.000 in 127.00 W/m2
13:49 72.0 °F 69.0 °F 30.0 in North 3 mph 4 mph 91% 0.000 in 237.00 W/m2
13:54 72.0 °F 69.0 °F 30.0 in North 4 mph 4 mph 91% 0.000 in 232.00 W/m2
13:59 72.0 °F 69.0 °F 30.0 in NE 3 mph 3 mph 91% 0.000 in 88.00 W/m2
14:04 72.0 °F 69.0 °F 30.0 in NE 3 mph 4 mph 91% 0.000 in 91.00 W/m2
14:09 72.0 °F 69.0 °F 30.0 in NE 3 mph 3 mph 91% 0.000 in 151.00 W/m2
14:14 72.0 °F 69.0 °F 30.0 in NE 4 mph 4 mph 91% 0.000 in 179.00 W/m2
14:19 72.0 °F 70.0 °F 30.0 in NE 2 mph 3 mph 91% 0.000 in 130.00 W/m2
14:24 73.0 °F 70.0 °F 30.0 in NNE 3 mph 3 mph 91% 0.000 in 200.00 W/m2
14:29 73.0 °F 70.0 °F 30.0 in NE 2 mph 3 mph 91% 0.000 in 276.00 W/m2
14:34 73.0 °F 70.0 °F 30.0 in NE 3 mph 3 mph 91% 0.000 in 260.00 W/m2
14:39 73.0 °F 71.0 °F 30.0 in NE 3 mph 3 mph 91% 0.000 in 162.00 W/m2
14:44 73.0 °F 71.0 °F 30.0 in ENE 4 mph 4 mph 91% 0.000 in 301.00 W/m2
14:49 74.0 °F 71.0 °F 30.0 in East 5 mph 5 mph 91% 0.000 in 348.00 W/m2
14:54 74.0 °F 71.0 °F 29.9 in East 4 mph 5 mph 91% 0.000 in 322.00 W/m2
14:59 75.0 °F 72.0 °F 29.9 in East 3 mph 4 mph 91% 0.000 in 306.00 W/m2
15:04 75.0 °F 72.0 °F 29.9 in ESE 4 mph 4 mph 91% 0.000 in 299.00 W/m2
15:09 75.0 °F 72.0 °F 29.9 in SE 5 mph 7 mph 91% 0.000 in 237.00 W/m2
15:14 75.0 °F 72.0 °F 29.9 in ESE 6 mph 7 mph 91% 0.000 in 162.00 W/m2
15:19 75.0 °F 73.0 °F 29.9 in SE 4 mph 4 mph 91% 0.000 in 153.00 W/m2
15:24 76.0 °F 73.0 °F 29.9 in SE 7 mph 7 mph 90% 0.000 in 121.00 W/m2
15:29 76.0 °F 73.0 °F 29.9 in SE 4 mph 4 mph 90% 0.000 in 132.00 W/m2
15:34 76.0 °F 73.0 °F 29.9 in SE 7 mph 7 mph 90% 0.000 in 214.00 W/m2
15:39 76.0 °F 73.0 °F 29.9 in SE 4 mph 4 mph 90% 0.000 in 176.00 W/m2
15:44 77.0 °F 73.0 °F 29.9 in SE 5 mph 6 mph 90% 0.000 in 121.00 W/m2
15:49 77.0 °F 73.0 °F 29.9 in SE 4 mph 6 mph 90% 0.000 in 121.00 W/m2
15:54 77.0 °F 73.0 °F 29.9 in SE 5 mph 6 mph 89% 0.000 in 116.00 W/m2
15:59 77.0 °F 74.0 °F 29.9 in SSE 5 mph 6 mph 89% 0.000 in 95.00 W/m2
16:04 77.0 °F 74.0 °F 29.9 in SE 3 mph 4 mph 88% 0.000 in 102.00 W/m2
16:09 77.0 °F 74.0 °F 29.9 in SE 3 mph 5 mph 88% 0.000 in 63.00 W/m2
16:14 78.0 °F 73.0 °F 29.9 in SE 4 mph 5 mph 87% 0.000 in 63.00 W/m2
16:19 78.0 °F 73.0 °F 29.9 in SE 6 mph 7 mph 87% 0.000 in 98.00 W/m2
16:24 78.0 °F 73.0 °F 29.9 in SE 5 mph 5 mph 86% 0.000 in 144.00 W/m2
16:29 78.0 °F 73.0 °F 29.9 in SSE 7 mph 7 mph 85% 0.000 in 148.00 W/m2
16:34 78.0 °F 73.0 °F 29.9 in SSE 6 mph 6 mph 85% 0.000 in 153.00 W/m2
16:39 78.0 °F 73.0 °F 29.9 in SSE 5 mph 8 mph 84% 0.000 in 171.00 W/m2
16:44 79.0 °F 73.0 °F 29.9 in SSE 4 mph 5 mph 83% 0.000 in 144.00 W/m2
16:49 79.0 °F 73.0 °F 29.9 in SSE 6 mph 7 mph 83% 0.000 in 118.00 W/m2
16:54 79.0 °F 73.0 °F 29.9 in SSE 4 mph 4 mph 82% 0.000 in 109.00 W/m2
16:59 79.0 °F 73.0 °F 29.9 in SSE 5 mph 5 mph 81% 0.000 in 105.00 W/m2
17:04 79.0 °F 73.0 °F 29.9 in SSE 5 mph 6 mph 81% 0.000 in 105.00 W/m2
17:09 79.0 °F 73.0 °F 29.9 in SSE 5 mph 6 mph 80% 0.000 in 95.00 W/m2
17:14 80.0 °F 73.0 °F 29.9 in SSE 5 mph 7 mph 80% 0.000 in 65.00 W/m2
17:19 80.0 °F 73.0 °F 29.9 in SSE 6 mph 6 mph 79% 0.000 in 67.00 W/m2
17:24 80.0 °F 72.0 °F 29.9 in SSE 7 mph 7 mph 78% 0.000 in 58.00 W/m2
17:29 80.0 °F 72.0 °F 29.9 in SSE 6 mph 7 mph 78% 0.000 in 79.00 W/m2
17:34 80.0 °F 72.0 °F 29.9 in SSE 5 mph 5 mph 78% 0.000 in 81.00 W/m2
17:39 80.0 °F 72.0 °F 29.9 in SSE 7 mph 7 mph 78% 0.000 in 65.00 W/m2
17:44 80.0 °F 72.0 °F 29.9 in South 5 mph 7 mph 77% 0.000 in 72.00 W/m2
17:49 80.0 °F 72.0 °F 29.9 in South 5 mph 6 mph 77% 0.000 in 58.00 W/m2
17:54 80.0 °F 72.0 °F 29.9 in SSE 5 mph 5 mph 77% 0.000 in 60.00 W/m2
17:59 80.0 °F 72.0 °F 29.9 in SSE 3 mph 6 mph 77% 0.000 in 54.00 W/m2
18:04 80.0 °F 72.0 °F 29.9 in SSE 4 mph 4 mph 77% 0.000 in 62.00 W/m2
18:09 80.0 °F 72.0 °F 29.9 in SSE 7 mph 7 mph 77% 0.000 in 47.00 W/m2
18:14 80.0 °F 71.0 °F 29.9 in SSE 5 mph 7 mph 76% 0.000 in 91.00 W/m2
18:19 80.0 °F 72.0 °F 29.9 in SSE 5 mph 5 mph 76% 0.000 in 128.00 W/m2
18:24 80.0 °F 72.0 °F 29.9 in SSE 4 mph 5 mph 76% 0.000 in 116.00 W/m2
18:29 80.0 °F 72.0 °F 29.9 in SSE 9 mph 9 mph 76% 0.000 in 97.00 W/m2
18:34 80.0 °F 72.0 °F 29.9 in SE 8 mph 8 mph 76% 0.000 in 58.00 W/m2
18:39 80.0 °F 72.0 °F 29.9 in SE 8 mph 8 mph 75% 0.000 in 51.00 W/m2
18:44 80.0 °F 72.0 °F 29.9 in SE 7 mph 9 mph 75% 0.000 in 44.00 W/m2
18:49 80.0 °F 72.0 °F 29.9 in SE 8 mph 8 mph 75% 0.000 in 28.00 W/m2
18:54 80.0 °F 72.0 °F 29.9 in SE 7 mph 7 mph 75% 0.000 in 23.00 W/m2
18:59 80.0 °F 72.0 °F 29.9 in SE 8 mph 9 mph 75% 0.000 in 26.00 W/m2
19:04 80.0 °F 71.0 °F 29.9 in SE 10 mph 12 mph 75% 0.000 in 32.00 W/m2
19:09 80.0 °F 71.0 °F 29.9 in SE 8 mph 11 mph 75% 0.000 in 32.00 W/m2
19:14 80.0 °F 71.0 °F 29.9 in SE 10 mph 10 mph 75% 0.000 in 33.00 W/m2
19:19 80.0 °F 71.0 °F 29.9 in SE 6 mph 10 mph 75% 0.000 in 37.00 W/m2
19:24 80.0 °F 71.0 °F 29.9 in SE 10 mph 10 mph 75% 0.000 in 37.00 W/m2
19:29 80.0 °F 71.0 °F 29.9 in SE 10 mph 10 mph 76% 0.000 in 33.00 W/m2
19:34 79.0 °F 71.0 °F 29.9 in SSE 7 mph 10 mph 76% 0.000 in 19.00 W/m2
19:39 79.0 °F 71.0 °F 29.9 in SE 8 mph 8 mph 76% 0.000 in 12.00 W/m2
19:44 79.0 °F 71.0 °F 29.9 in SE 7 mph 8 mph 76% 0.000 in 9.00 W/m2
19:49 79.0 °F 71.0 °F 29.9 in SE 10 mph 10 mph 76% 0.000 in 0.00 W/m2
19:54 79.0 °F 71.0 °F 29.9 in SE 9 mph 9 mph 77% 0.000 in 0.00 W/m2
19:59 78.0 °F 71.0 °F 29.9 in SE 10 mph 10 mph 77% 0.000 in 0.00 W/m2
20:04 78.0 °F 71.0 °F 29.9 in SE 8 mph 10 mph 77% 0.000 in 0.00 W/m2
20:09 78.0 °F 70.0 °F 29.9 in SE 9 mph 9 mph 77% 0.000 in 0.00 W/m2
20:14 78.0 °F 70.0 °F 29.9 in SSE 8 mph 8 mph 78% 0.000 in 0.00 W/m2
20:19 78.0 °F 70.0 °F 29.9 in SE 8 mph 8 mph 78% 0.000 in 0.00 W/m2
20:24 78.0 °F 70.0 °F 29.9 in SE 8 mph 8 mph 78% 0.000 in 0.00 W/m2
20:29 77.0 °F 70.0 °F 29.9 in SSE 9 mph 11 mph 78% 0.000 in 0.00 W/m2
20:34 77.0 °F 70.0 °F 29.9 in SSE 8 mph 9 mph 78% 0.000 in 0.00 W/m2
20:39 77.0 °F 70.0 °F 29.9 in SSE 7 mph 8 mph 79% 0.000 in 0.00 W/m2
20:44 77.0 °F 70.0 °F 29.9 in SSE 7 mph 8 mph 79% 0.000 in 0.00 W/m2
20:49 77.0 °F 70.0 °F 29.9 in SSE 8 mph 9 mph 79% 0.000 in 0.00 W/m2
20:54 77.0 °F 70.0 °F 29.9 in SE 7 mph 9 mph 80% 0.000 in 0.00 W/m2
20:59 77.0 °F 70.0 °F 29.9 in SE 9 mph 10 mph 80% 0.000 in 0.00 W/m2
21:04 76.0 °F 70.0 °F 29.9 in SSE 10 mph 10 mph 80% 0.000 in 0.00 W/m2
21:09 76.0 °F 70.0 °F 29.9 in SSE 9 mph 10 mph 80% 0.000 in 0.00 W/m2
21:14 76.0 °F 69.0 °F 29.9 in SSE 6 mph 10 mph 80% 0.000 in 0.00 W/m2
21:19 76.0 °F 70.0 °F 29.9 in SSE 6 mph 6 mph 81% 0.000 in 0.00 W/m2
21:24 76.0 °F 69.0 °F 29.9 in SSE 8 mph 8 mph 81% 0.000 in 0.00 W/m2
21:29 76.0 °F 69.0 °F 29.9 in SSE 6 mph 8 mph 81% 0.000 in 0.00 W/m2
21:34 76.0 °F 69.0 °F 29.9 in SSE 4 mph 7 mph 81% 0.000 in 0.00 W/m2
21:39 76.0 °F 69.0 °F 29.9 in SSE 6 mph 8 mph 81% 0.000 in 0.00 W/m2
21:44 75.0 °F 69.0 °F 29.9 in SSE 8 mph 8 mph 81% 0.000 in 0.00 W/m2
21:49 75.0 °F 69.0 °F 29.9 in SSE 5 mph 7 mph 82% 0.000 in 0.00 W/m2
21:52 75.0 °F 69.0 °F 29.9 in SSE 6 mph 6 mph 82% 0.000 in 0.00 W/m2
21:59 75.0 °F 69.0 °F 29.9 in SSE 4 mph 7 mph 82% 0.000 in 0.00 W/m2
22:04 75.0 °F 69.0 °F 29.9 in SSE 8 mph 8 mph 82% 0.000 in 0.00 W/m2
22:09 75.0 °F 69.0 °F 29.9 in SSE 5 mph 6 mph 83% 0.000 in 0.00 W/m2
22:14 75.0 °F 69.0 °F 29.9 in SSE 5 mph 8 mph 83% 0.000 in 0.00 W/m2
22:24 75.0 °F 69.0 °F 29.9 in SSE 9 mph 9 mph 83% 0.000 in 0.00 W/m2
22:29 75.0 °F 69.0 °F 29.9 in SSE 6 mph 9 mph 83% 0.000 in 0.00 W/m2
22:34 74.0 °F 69.0 °F 29.9 in SSE 5 mph 6 mph 83% 0.000 in 0.00 W/m2
22:39 74.0 °F 69.0 °F 29.9 in SE 5 mph 7 mph 84% 0.000 in 0.00 W/m2
22:44 74.0 °F 69.0 °F 29.9 in SE 5 mph 5 mph 84% 0.000 in 0.00 W/m2
22:49 74.0 °F 69.0 °F 29.9 in SE 7 mph 7 mph 84% 0.000 in 0.00 W/m2
22:54 74.0 °F 69.0 °F 29.9 in SSE 7 mph 8 mph 84% 0.000 in 0.00 W/m2
22:59 74.0 °F 69.0 °F 29.9 in SE 7 mph 7 mph 84% 0.000 in 0.00 W/m2
23:04 74.0 °F 69.0 °F 29.9 in SE 5 mph 5 mph 85% 0.000 in 0.00 W/m2
23:09 74.0 °F 69.0 °F 29.9 in SE 4 mph 5 mph 84% 0.000 in 0.00 W/m2
23:14 74.0 °F 69.0 °F 29.9 in SE 5 mph 6 mph 85% 0.000 in 0.00 W/m2
23:19 74.0 °F 69.0 °F 29.9 in SE 5 mph 6 mph 85% 0.000 in 0.00 W/m2
23:24 74.0 °F 69.0 °F 29.9 in SE 7 mph 7 mph 85% 0.000 in 0.00 W/m2
23:29 74.0 °F 69.0 °F 29.9 in SE 5 mph 5 mph 85% 0.000 in 0.00 W/m2
23:34 74.0 °F 69.0 °F 29.9 in SSE 6 mph 7 mph 85% 0.000 in 0.00 W/m2
23:39 74.0 °F 69.0 °F 29.9 in SSE 6 mph 8 mph 86% 0.000 in 0.00 W/m2
23:44 74.0 °F 69.0 °F 29.9 in SSE 5 mph 6 mph 86% 0.000 in 0.00 W/m2
23:49 74.0 °F 69.0 °F 29.9 in SE 5 mph 8 mph 86% 0.000 in 0.00 W/m2
23:54 74.0 °F 69.0 °F 29.9 in SE 7 mph 8 mph 86% 0.000 in 0.00 W/m2
23:59 74.0 °F 69.0 °F 29.9 in SE 8 mph 8 mph 87% 0.000 in 0.00 W/m2
Villages of Bridgestone, Spring, TX USA
Compliments of Weather Underground - 4 mb